sensor_id;sensor_type;location;lat;lon;timestamp;temperature;humidity
19330;DHT22;9799;48.214;16.388;2024-03-23T00:57:05;13.80;99.90
19330;DHT22;9799;48.214;16.388;2024-03-23T01:00:26;13.70;99.90
19330;DHT22;9799;48.214;16.388;2024-03-23T01:03:46;13.60;99.90
19330;DHT22;9799;48.214;16.388;2024-03-23T01:07:07;13.70;99.90
19330;DHT22;9799;48.214;16.388;2024-03-23T01:10:29;13.90;99.90
19330;DHT22;9799;48.214;16.388;2024-03-23T01:13:50;13.90;99.90
19330;DHT22;9799;48.214;16.388;2024-03-23T01:17:11;14.00;99.90
19330;DHT22;9799;48.214;16.388;2024-03-23T01:20:32;13.90;99.90
19330;DHT22;9799;48.214;16.388;2024-03-23T01:23:53;13.80;99.90
19330;DHT22;9799;48.214;16.388;2024-03-23T01:27:15;13.80;99.90
19330;DHT22;9799;48.214;16.388;2024-03-23T01:30:36;13.80;99.90
19330;DHT22;9799;48.214;16.388;2024-03-23T01:33:58;13.90;99.90
19330;DHT22;9799;48.214;16.388;2024-03-23T01:37:18;13.90;99.90
19330;DHT22;9799;48.214;16.388;2024-03-23T01:40:39;13.90;99.90
19330;DHT22;9799;48.214;16.388;2024-03-23T01:44:05;13.70;99.90
19330;DHT22;9799;48.214;16.388;2024-03-23T01:47:27;13.70;99.90
19330;DHT22;9799;48.214;16.388;2024-03-23T01:50:48;13.60;99.90
19330;DHT22;9799;48.214;16.388;2024-03-23T01:54:09;13.70;99.90
19330;DHT22;9799;48.214;16.388;2024-03-23T01:57:30;13.70;99.90
19330;DHT22;9799;48.214;16.388;2024-03-23T02:00:52;13.50;99.90
19330;DHT22;9799;48.214;16.388;2024-03-23T02:04:13;13.40;99.90
19330;DHT22;9799;48.214;16.388;2024-03-23T02:07:34;13.40;99.90
19330;DHT22;9799;48.214;16.388;2024-03-23T02:10:55;13.40;99.90
19330;DHT22;9799;48.214;16.388;2024-03-23T02:14:16;13.40;99.90
19330;DHT22;9799;48.214;16.388;2024-03-23T02:17:38;13.40;99.90
19330;DHT22;9799;48.214;16.388;2024-03-23T02:20:59;13.40;99.90
19330;DHT22;9799;48.214;16.388;2024-03-23T02:24:22;13.30;99.90
19330;DHT22;9799;48.214;16.388;2024-03-23T02:27:43;13.30;99.90
19330;DHT22;9799;48.214;16.388;2024-03-23T02:31:04;13.20;99.90
19330;DHT22;9799;48.214;16.388;2024-03-23T02:34:25;13.20;99.90
19330;DHT22;9799;48.214;16.388;2024-03-23T02:37:46;13.20;99.90
19330;DHT22;9799;48.214;16.388;2024-03-23T02:41:09;13.20;99.90
19330;DHT22;9799;48.214;16.388;2024-03-23T02:44:30;13.20;99.90
19330;DHT22;9799;48.214;16.388;2024-03-23T02:47:52;13.10;99.90
19330;DHT22;9799;48.214;16.388;2024-03-23T02:51:13;13.20;99.90
19330;DHT22;9799;48.214;16.388;2024-03-23T02:54:33;13.10;99.90
19330;DHT22;9799;48.214;16.388;2024-03-23T02:57:56;13.10;99.90
19330;DHT22;9799;48.214;16.388;2024-03-23T03:01:21;13.10;99.90
19330;DHT22;9799;48.214;16.388;2024-03-23T03:04:42;13.00;99.90
19330;DHT22;9799;48.214;16.388;2024-03-23T03:08:03;13.00;99.90
19330;DHT22;9799;48.214;16.388;2024-03-23T03:11:25;13.00;99.90
19330;DHT22;9799;48.214;16.388;2024-03-23T03:14:46;13.10;99.90
19330;DHT22;9799;48.214;16.388;2024-03-23T03:18:08;13.10;99.90
19330;DHT22;9799;48.214;16.388;2024-03-23T03:21:28;13.10;99.90
19330;DHT22;9799;48.214;16.388;2024-03-23T03:24:49;13.10;99.90
19330;DHT22;9799;48.214;16.388;2024-03-23T03:28:11;13.10;99.90
19330;DHT22;9799;48.214;16.388;2024-03-23T03:31:33;13.00;99.90
19330;DHT22;9799;48.214;16.388;2024-03-23T03:34:54;13.00;99.90
19330;DHT22;9799;48.214;16.388;2024-03-23T03:38:14;13.00;99.90
19330;DHT22;9799;48.214;16.388;2024-03-23T03:41:35;13.00;99.90
19330;DHT22;9799;48.214;16.388;2024-03-23T03:44:56;13.00;99.90
19330;DHT22;9799;48.214;16.388;2024-03-23T03:48:18;12.90;99.90
19330;DHT22;9799;48.214;16.388;2024-03-23T03:51:39;12.90;99.90
19330;DHT22;9799;48.214;16.388;2024-03-23T03:55:02;12.90;99.90
19330;DHT22;9799;48.214;16.388;2024-03-23T03:58:22;13.10;99.90
19330;DHT22;9799;48.214;16.388;2024-03-23T04:01:44;13.10;99.90
19330;DHT22;9799;48.214;16.388;2024-03-23T04:05:07;13.00;99.90
19330;DHT22;9799;48.214;16.388;2024-03-23T04:08:28;12.90;99.90
19330;DHT22;9799;48.214;16.388;2024-03-23T04:11:49;13.00;99.90
19330;DHT22;9799;48.214;16.388;2024-03-23T04:15:10;12.90;99.90
19330;DHT22;9799;48.214;16.388;2024-03-23T04:18:31;13.00;99.90
19330;DHT22;9799;48.214;16.388;2024-03-23T04:21:54;12.90;99.90
19330;DHT22;9799;48.214;16.388;2024-03-23T04:25:14;12.90;99.90
19330;DHT22;9799;48.214;16.388;2024-03-23T04:28:36;12.90;99.90
19330;DHT22;9799;48.214;16.388;2024-03-23T04:31:57;12.90;99.90
19330;DHT22;9799;48.214;16.388;2024-03-23T04:35:17;12.90;99.90
19330;DHT22;9799;48.214;16.388;2024-03-23T04:38:41;12.90;99.90
19330;DHT22;9799;48.214;16.388;2024-03-23T04:42:02;12.90;99.90
19330;DHT22;9799;48.214;16.388;2024-03-23T04:45:24;13.00;99.90
19330;DHT22;9799;48.214;16.388;2024-03-23T04:48:45;12.90;99.90
19330;DHT22;9799;48.214;16.388;2024-03-23T04:52:06;12.80;99.90
19330;DHT22;9799;48.214;16.388;2024-03-23T04:55:29;12.80;99.90
19330;DHT22;9799;48.214;16.388;2024-03-23T04:58:50;12.70;99.90
19330;DHT22;9799;48.214;16.388;2024-03-23T05:02:11;12.60;99.90
19330;DHT22;9799;48.214;16.388;2024-03-23T05:05:32;12.60;99.90
19330;DHT22;9799;48.214;16.388;2024-03-23T05:08:52;12.60;99.90
19330;DHT22;9799;48.214;16.388;2024-03-23T05:12:15;12.60;99.90
19330;DHT22;9799;48.214;16.388;2024-03-23T05:15:35;12.60;99.90
19330;DHT22;9799;48.214;16.388;2024-03-23T05:18:56;12.70;99.90
19330;DHT22;9799;48.214;16.388;2024-03-23T05:22:18;12.60;99.90
19330;DHT22;9799;48.214;16.388;2024-03-23T05:25:39;12.50;99.90
19330;DHT22;9799;48.214;16.388;2024-03-23T05:29:02;12.50;99.90
19330;DHT22;9799;48.214;16.388;2024-03-23T05:32:23;12.40;99.90
19330;DHT22;9799;48.214;16.388;2024-03-23T05:35:44;12.50;99.90
19330;DHT22;9799;48.214;16.388;2024-03-23T05:39:05;12.50;99.90
19330;DHT22;9799;48.214;16.388;2024-03-23T05:42:26;12.50;99.90
19330;DHT22;9799;48.214;16.388;2024-03-23T05:45:53;12.50;99.90
19330;DHT22;9799;48.214;16.388;2024-03-23T05:49:15;12.60;99.90
19330;DHT22;9799;48.214;16.388;2024-03-23T05:52:37;12.50;99.90
19330;DHT22;9799;48.214;16.388;2024-03-23T05:56:03;12.50;99.90
19330;DHT22;9799;48.214;16.388;2024-03-23T05:59:23;12.60;99.90
19330;DHT22;9799;48.214;16.388;2024-03-23T06:02:46;12.60;99.90
19330;DHT22;9799;48.214;16.388;2024-03-23T06:06:07;12.60;99.90
19330;DHT22;9799;48.214;16.388;2024-03-23T06:09:31;12.60;99.90
19330;DHT22;9799;48.214;16.388;2024-03-23T06:12:52;12.80;99.90
19330;DHT22;9799;48.214;16.388;2024-03-23T06:16:13;12.80;99.90
19330;DHT22;9799;48.214;16.388;2024-03-23T06:19:36;12.80;99.90
19330;DHT22;9799;48.214;16.388;2024-03-23T06:22:57;12.80;99.90
19330;DHT22;9799;48.214;16.388;2024-03-23T06:26:18;12.90;99.90
19330;DHT22;9799;48.214;16.388;2024-03-23T06:29:38;13.00;99.90
19330;DHT22;9799;48.214;16.388;2024-03-23T06:33:00;13.10;99.90
19330;DHT22;9799;48.214;16.388;2024-03-23T06:36:21;13.20;99.90
19330;DHT22;9799;48.214;16.388;2024-03-23T06:39:42;13.20;99.90
19330;DHT22;9799;48.214;16.388;2024-03-23T06:43:03;13.10;99.90
19330;DHT22;9799;48.214;16.388;2024-03-23T06:46:24;13.00;99.90
19330;DHT22;9799;48.214;16.388;2024-03-23T06:49:45;13.10;99.90
19330;DHT22;9799;48.214;16.388;2024-03-23T06:53:08;13.00;99.90
19330;DHT22;9799;48.214;16.388;2024-03-23T06:56:29;13.10;99.90
19330;DHT22;9799;48.214;16.388;2024-03-23T06:59:49;13.20;99.90
19330;DHT22;9799;48.214;16.388;2024-03-23T07:03:10;13.10;99.90
19330;DHT22;9799;48.214;16.388;2024-03-23T07:06:30;13.10;99.90
19330;DHT22;9799;48.214;16.388;2024-03-23T07:09:53;13.20;99.90
19330;DHT22;9799;48.214;16.388;2024-03-23T07:13:14;13.20;99.90
19330;DHT22;9799;48.214;16.388;2024-03-23T07:16:34;13.20;99.90
19330;DHT22;9799;48.214;16.388;2024-03-23T07:19:56;13.20;99.90
19330;DHT22;9799;48.214;16.388;2024-03-23T07:23:17;13.20;99.90
19330;DHT22;9799;48.214;16.388;2024-03-23T07:26:38;13.20;99.90
19330;DHT22;9799;48.214;16.388;2024-03-23T07:29:59;13.30;99.90
19330;DHT22;9799;48.214;16.388;2024-03-23T07:33:21;13.40;99.90
19330;DHT22;9799;48.214;16.388;2024-03-23T07:36:41;13.40;99.90
19330;DHT22;9799;48.214;16.388;2024-03-23T07:40:03;13.50;99.90
19330;DHT22;9799;48.214;16.388;2024-03-23T07:43:24;13.60;99.90
19330;DHT22;9799;48.214;16.388;2024-03-23T07:46:45;13.50;99.90
19330;DHT22;9799;48.214;16.388;2024-03-23T07:50:07;13.60;99.90
19330;DHT22;9799;48.214;16.388;2024-03-23T07:53:28;13.60;99.90
19330;DHT22;9799;48.214;16.388;2024-03-23T07:56:49;13.50;99.90
19330;DHT22;9799;48.214;16.388;2024-03-23T08:00:13;13.70;99.90
19330;DHT22;9799;48.214;16.388;2024-03-23T08:03:34;13.70;99.90
19330;DHT22;9799;48.214;16.388;2024-03-23T08:06:55;14.00;99.90
19330;DHT22;9799;48.214;16.388;2024-03-23T08:10:16;14.10;99.90
19330;DHT22;9799;48.214;16.388;2024-03-23T08:13:39;14.40;99.90
19330;DHT22;9799;48.214;16.388;2024-03-23T08:17:02;14.50;99.90
19330;DHT22;9799;48.214;16.388;2024-03-23T08:20:22;14.50;99.90
19330;DHT22;9799;48.214;16.388;2024-03-23T08:23:43;14.50;99.90
19330;DHT22;9799;48.214;16.388;2024-03-23T08:27:05;14.50;99.90
19330;DHT22;9799;48.214;16.388;2024-03-23T08:30:26;14.90;99.90
19330;DHT22;9799;48.214;16.388;2024-03-23T08:33:48;14.90;99.90
19330;DHT22;9799;48.214;16.388;2024-03-23T08:37:10;14.90;99.90
19330;DHT22;9799;48.214;16.388;2024-03-23T08:40:31;14.90;99.90
19330;DHT22;9799;48.214;16.388;2024-03-23T08:43:52;15.10;99.90
19330;DHT22;9799;48.214;16.388;2024-03-23T08:47:13;15.30;99.90
19330;DHT22;9799;48.214;16.388;2024-03-23T08:50:35;15.60;99.90
19330;DHT22;9799;48.214;16.388;2024-03-23T08:53:56;15.70;99.90
19330;DHT22;9799;48.214;16.388;2024-03-23T08:57:18;15.90;99.90
19330;DHT22;9799;48.214;16.388;2024-03-23T09:00:38;16.10;99.90
19330;DHT22;9799;48.214;16.388;2024-03-23T09:03:59;16.60;99.90
19330;DHT22;9799;48.214;16.388;2024-03-23T09:07:22;17.20;99.90
19330;DHT22;9799;48.214;16.388;2024-03-23T09:10:43;16.80;99.90
19330;DHT22;9799;48.214;16.388;2024-03-23T09:14:04;16.70;99.90
19330;DHT22;9799;48.214;16.388;2024-03-23T09:17:25;16.70;99.90
19330;DHT22;9799;48.214;16.388;2024-03-23T09:20:47;16.80;99.90
19330;DHT22;9799;48.214;16.388;2024-03-23T09:24:09;16.90;99.90
19330;DHT22;9799;48.214;16.388;2024-03-23T09:27:30;17.10;99.90
19330;DHT22;9799;48.214;16.388;2024-03-23T09:30:51;17.30;99.90
19330;DHT22;9799;48.214;16.388;2024-03-23T09:34:12;17.40;99.90
19330;DHT22;9799;48.214;16.388;2024-03-23T09:37:32;17.60;99.70
19330;DHT22;9799;48.214;16.388;2024-03-23T09:40:55;17.80;98.00
19330;DHT22;9799;48.214;16.388;2024-03-23T09:44:16;17.80;97.10
19330;DHT22;9799;48.214;16.388;2024-03-23T09:47:37;18.00;96.60
19330;DHT22;9799;48.214;16.388;2024-03-23T09:50:58;18.30;96.60
19330;DHT22;9799;48.214;16.388;2024-03-23T09:54:20;18.40;95.70
19330;DHT22;9799;48.214;16.388;2024-03-23T09:57:43;18.50;95.40
19330;DHT22;9799;48.214;16.388;2024-03-23T10:01:05;18.50;95.60
19330;DHT22;9799;48.214;16.388;2024-03-23T10:04:40;18.40;95.80
19330;DHT22;9799;48.214;16.388;2024-03-23T10:08:17;18.60;94.90
19330;DHT22;9799;48.214;16.388;2024-03-23T10:11:39;18.70;94.60
19330;DHT22;9799;48.214;16.388;2024-03-23T10:15:02;18.90;94.40
19330;DHT22;9799;48.214;16.388;2024-03-23T10:18:23;19.00;93.60
19330;DHT22;9799;48.214;16.388;2024-03-23T10:21:52;19.00;92.90
19330;DHT22;9799;48.214;16.388;2024-03-23T10:25:13;18.90;93.00
19330;DHT22;9799;48.214;16.388;2024-03-23T10:28:34;19.10;92.00
19330;DHT22;9799;48.214;16.388;2024-03-23T10:32:09;19.20;91.10
19330;DHT22;9799;48.214;16.388;2024-03-23T10:35:30;19.50;90.50
19330;DHT22;9799;48.214;16.388;2024-03-23T10:38:52;19.60;89.60
19330;DHT22;9799;48.214;16.388;2024-03-23T10:42:12;19.80;89.00
19330;DHT22;9799;48.214;16.388;2024-03-23T10:45:35;20.00;91.40
19330;DHT22;9799;48.214;16.388;2024-03-23T10:48:56;20.10;91.50
19330;DHT22;9799;48.214;16.388;2024-03-23T10:52:17;20.30;90.80
19330;DHT22;9799;48.214;16.388;2024-03-23T10:55:40;20.30;89.70
19330;DHT22;9799;48.214;16.388;2024-03-23T10:59:02;20.20;88.10
19330;DHT22;9799;48.214;16.388;2024-03-23T11:02:27;20.30;88.30
19330;DHT22;9799;48.214;16.388;2024-03-23T11:05:51;20.30;88.60
19330;DHT22;9799;48.214;16.388;2024-03-23T11:09:38;20.10;84.50
19330;DHT22;9799;48.214;16.388;2024-03-23T11:13:24;20.30;82.00
19330;DHT22;9799;48.214;16.388;2024-03-23T11:16:45;19.80;82.40
19330;DHT22;9799;48.214;16.388;2024-03-23T11:20:06;20.00;82.40
19330;DHT22;9799;48.214;16.388;2024-03-23T11:23:30;20.20;78.60
19330;DHT22;9799;48.214;16.388;2024-03-23T11:26:50;20.20;78.60
19330;DHT22;9799;48.214;16.388;2024-03-23T11:30:13;20.20;80.50
19330;DHT22;9799;48.214;16.388;2024-03-23T11:33:33;20.30;78.30
19330;DHT22;9799;48.214;16.388;2024-03-23T11:37:03;20.30;78.60
19330;DHT22;9799;48.214;16.388;2024-03-23T11:40:25;20.30;78.20
19330;DHT22;9799;48.214;16.388;2024-03-23T11:43:46;20.30;78.30
19330;DHT22;9799;48.214;16.388;2024-03-23T11:47:08;20.20;78.80
19330;DHT22;9799;48.214;16.388;2024-03-23T11:50:28;20.00;80.10
19330;DHT22;9799;48.214;16.388;2024-03-23T11:53:50;20.10;79.30
19330;DHT22;9799;48.214;16.388;2024-03-23T11:57:11;20.00;79.80
19330;DHT22;9799;48.214;16.388;2024-03-23T12:00:32;20.10;79.70
19330;DHT22;9799;48.214;16.388;2024-03-23T12:03:53;20.00;79.90
19330;DHT22;9799;48.214;16.388;2024-03-23T12:07:15;20.00;79.00
19330;DHT22;9799;48.214;16.388;2024-03-23T12:10:38;20.00;80.00
19330;DHT22;9799;48.214;16.388;2024-03-23T12:14:01;19.80;81.20
19330;DHT22;9799;48.214;16.388;2024-03-23T12:17:22;19.70;82.10
19330;DHT22;9799;48.214;16.388;2024-03-23T12:20:42;19.70;80.60
19330;DHT22;9799;48.214;16.388;2024-03-23T12:24:04;19.70;81.80
19330;DHT22;9799;48.214;16.388;2024-03-23T12:27:24;19.50;81.20
19330;DHT22;9799;48.214;16.388;2024-03-23T12:30:47;19.60;80.40
19330;DHT22;9799;48.214;16.388;2024-03-23T12:34:08;19.40;82.10
19330;DHT22;9799;48.214;16.388;2024-03-23T12:37:28;19.50;80.70
19330;DHT22;9799;48.214;16.388;2024-03-23T12:40:50;19.50;79.60
19330;DHT22;9799;48.214;16.388;2024-03-23T12:44:11;19.50;79.80
19330;DHT22;9799;48.214;16.388;2024-03-23T12:47:35;19.60;80.10
19330;DHT22;9799;48.214;16.388;2024-03-23T12:50:56;19.50;80.20
19330;DHT22;9799;48.214;16.388;2024-03-23T12:54:16;19.50;80.00
19330;DHT22;9799;48.214;16.388;2024-03-23T12:57:37;19.50;79.80
19330;DHT22;9799;48.214;16.388;2024-03-23T13:00:58;19.40;83.50
19330;DHT22;9799;48.214;16.388;2024-03-23T13:04:20;19.10;88.50
19330;DHT22;9799;48.214;16.388;2024-03-23T13:07:42;18.60;91.40
19330;DHT22;9799;48.214;16.388;2024-03-23T13:11:03;18.20;93.00
19330;DHT22;9799;48.214;16.388;2024-03-23T13:14:23;17.60;95.40
19330;DHT22;9799;48.214;16.388;2024-03-23T13:17:45;17.30;95.60
19330;DHT22;9799;48.214;16.388;2024-03-23T13:21:07;16.90;97.20
19330;DHT22;9799;48.214;16.388;2024-03-23T13:24:28;16.80;99.30
19330;DHT22;9799;48.214;16.388;2024-03-23T13:27:49;16.40;99.90
19330;DHT22;9799;48.214;16.388;2024-03-23T13:31:10;16.10;99.90
19330;DHT22;9799;48.214;16.388;2024-03-23T13:34:31;16.00;99.90
19330;DHT22;9799;48.214;16.388;2024-03-23T13:37:54;15.80;99.90
19330;DHT22;9799;48.214;16.388;2024-03-23T13:41:14;15.60;99.90
19330;DHT22;9799;48.214;16.388;2024-03-23T13:44:35;15.40;99.90
19330;DHT22;9799;48.214;16.388;2024-03-23T13:47:57;15.30;99.90
19330;DHT22;9799;48.214;16.388;2024-03-23T13:51:23;15.10;99.90
19330;DHT22;9799;48.214;16.388;2024-03-23T13:54:49;14.70;99.90
19330;DHT22;9799;48.214;16.388;2024-03-23T13:58:09;14.70;99.90
19330;DHT22;9799;48.214;16.388;2024-03-23T14:01:32;14.50;99.90
19330;DHT22;9799;48.214;16.388;2024-03-23T14:04:53;14.40;99.90
19330;DHT22;9799;48.214;16.388;2024-03-23T14:08:13;14.20;99.90
19330;DHT22;9799;48.214;16.388;2024-03-23T14:11:36;13.90;99.90
19330;DHT22;9799;48.214;16.388;2024-03-23T14:14:57;13.90;99.90
19330;DHT22;9799;48.214;16.388;2024-03-23T14:18:18;14.00;99.90
19330;DHT22;9799;48.214;16.388;2024-03-23T14:21:39;13.80;99.90
19330;DHT22;9799;48.214;16.388;2024-03-23T14:25:00;13.60;99.90
19330;DHT22;9799;48.214;16.388;2024-03-23T14:28:22;13.50;99.90
19330;DHT22;9799;48.214;16.388;2024-03-23T14:31:43;13.40;99.90
19330;DHT22;9799;48.214;16.388;2024-03-23T14:35:04;13.30;99.90
19330;DHT22;9799;48.214;16.388;2024-03-23T14:38:26;13.20;99.90
19330;DHT22;9799;48.214;16.388;2024-03-23T14:41:47;13.10;99.90
19330;DHT22;9799;48.214;16.388;2024-03-23T14:45:10;12.80;99.90
19330;DHT22;9799;48.214;16.388;2024-03-23T14:48:31;12.60;99.90
19330;DHT22;9799;48.214;16.388;2024-03-23T14:51:52;12.60;99.90
19330;DHT22;9799;48.214;16.388;2024-03-23T14:55:13;12.60;99.90
19330;DHT22;9799;48.214;16.388;2024-03-23T14:58:35;12.50;99.90
19330;DHT22;9799;48.214;16.388;2024-03-23T15:01:57;12.30;99.90
19330;DHT22;9799;48.214;16.388;2024-03-23T15:05:19;12.50;99.90
19330;DHT22;9799;48.214;16.388;2024-03-23T15:08:40;12.50;99.90
19330;DHT22;9799;48.214;16.388;2024-03-23T15:12:01;12.50;99.90
19330;DHT22;9799;48.214;16.388;2024-03-23T15:15:22;12.40;99.90
19330;DHT22;9799;48.214;16.388;2024-03-23T15:18:43;12.00;99.90
19330;DHT22;9799;48.214;16.388;2024-03-23T15:22:04;11.90;99.90
19330;DHT22;9799;48.214;16.388;2024-03-23T15:25:25;11.70;99.90
19330;DHT22;9799;48.214;16.388;2024-03-23T15:28:48;11.60;99.90
19330;DHT22;9799;48.214;16.388;2024-03-23T15:32:29;11.60;99.90
19330;DHT22;9799;48.214;16.388;2024-03-23T15:35:52;11.50;99.90
19330;DHT22;9799;48.214;16.388;2024-03-23T15:39:13;11.40;99.90
19330;DHT22;9799;48.214;16.388;2024-03-23T15:42:35;11.30;99.90
19330;DHT22;9799;48.214;16.388;2024-03-23T15:45:55;11.20;99.90
19330;DHT22;9799;48.214;16.388;2024-03-23T15:49:16;11.10;99.90
19330;DHT22;9799;48.214;16.388;2024-03-23T15:52:39;11.10;99.90
19330;DHT22;9799;48.214;16.388;2024-03-23T15:55:59;11.20;99.90
19330;DHT22;9799;48.214;16.388;2024-03-23T15:59:21;11.30;99.90
19330;DHT22;9799;48.214;16.388;2024-03-23T16:02:42;11.30;99.90
19330;DHT22;9799;48.214;16.388;2024-03-23T16:06:04;11.30;99.90
19330;DHT22;9799;48.214;16.388;2024-03-23T16:09:27;11.40;99.90
19330;DHT22;9799;48.214;16.388;2024-03-23T16:12:49;11.40;99.90
19330;DHT22;9799;48.214;16.388;2024-03-23T16:16:10;11.40;99.90
19330;DHT22;9799;48.214;16.388;2024-03-23T16:19:31;11.20;99.90
19330;DHT22;9799;48.214;16.388;2024-03-23T16:22:52;11.30;99.90
19330;DHT22;9799;48.214;16.388;2024-03-23T16:26:15;11.30;99.90
19330;DHT22;9799;48.214;16.388;2024-03-23T16:29:37;11.40;99.90
19330;DHT22;9799;48.214;16.388;2024-03-23T16:32:57;11.40;99.90
19330;DHT22;9799;48.214;16.388;2024-03-23T16:36:19;11.50;99.90
19330;DHT22;9799;48.214;16.388;2024-03-23T16:39:39;11.40;99.90
19330;DHT22;9799;48.214;16.388;2024-03-23T16:43:01;11.40;99.90
19330;DHT22;9799;48.214;16.388;2024-03-23T16:46:23;11.30;99.90
19330;DHT22;9799;48.214;16.388;2024-03-23T16:49:44;11.40;99.90
19330;DHT22;9799;48.214;16.388;2024-03-23T16:53:04;11.20;99.90
19330;DHT22;9799;48.214;16.388;2024-03-23T16:56:25;11.20;99.90
19330;DHT22;9799;48.214;16.388;2024-03-23T16:59:48;11.30;99.90
19330;DHT22;9799;48.214;16.388;2024-03-23T17:03:09;11.30;99.90
19330;DHT22;9799;48.214;16.388;2024-03-23T17:06:30;11.30;99.90
19330;DHT22;9799;48.214;16.388;2024-03-23T17:09:52;11.40;99.90
19330;DHT22;9799;48.214;16.388;2024-03-23T17:13:12;11.40;99.90
19330;DHT22;9799;48.214;16.388;2024-03-23T17:16:35;11.30;99.90
19330;DHT22;9799;48.214;16.388;2024-03-23T17:19:59;11.20;99.90
19330;DHT22;9799;48.214;16.388;2024-03-23T17:23:22;11.10;99.90
19330;DHT22;9799;48.214;16.388;2024-03-23T17:26:44;10.90;99.90
19330;DHT22;9799;48.214;16.388;2024-03-23T17:30:05;10.70;99.90
19330;DHT22;9799;48.214;16.388;2024-03-23T17:33:28;10.80;99.90
19330;DHT22;9799;48.214;16.388;2024-03-23T17:36:48;10.90;99.90
19330;DHT22;9799;48.214;16.388;2024-03-23T17:40:09;10.90;99.90
19330;DHT22;9799;48.214;16.388;2024-03-23T17:43:31;10.80;99.90
19330;DHT22;9799;48.214;16.388;2024-03-23T17:46:53;10.80;99.90
19330;DHT22;9799;48.214;16.388;2024-03-23T17:50:15;10.80;99.90
19330;DHT22;9799;48.214;16.388;2024-03-23T17:53:39;10.70;99.90
19330;DHT22;9799;48.214;16.388;2024-03-23T17:57:00;10.80;99.90
19330;DHT22;9799;48.214;16.388;2024-03-23T18:00:20;10.70;99.90
19330;DHT22;9799;48.214;16.388;2024-03-23T18:03:41;10.70;99.90
19330;DHT22;9799;48.214;16.388;2024-03-23T18:07:04;10.60;99.90
19330;DHT22;9799;48.214;16.388;2024-03-23T18:10:24;10.70;99.90
19330;DHT22;9799;48.214;16.388;2024-03-23T18:13:46;10.70;99.90
19330;DHT22;9799;48.214;16.388;2024-03-23T18:17:07;10.80;99.90
19330;DHT22;9799;48.214;16.388;2024-03-23T18:20:27;10.60;99.90
19330;DHT22;9799;48.214;16.388;2024-03-23T18:23:49;10.70;99.90
19330;DHT22;9799;48.214;16.388;2024-03-23T18:27:11;10.60;99.90
19330;DHT22;9799;48.214;16.388;2024-03-23T18:30:32;10.50;99.90
19330;DHT22;9799;48.214;16.388;2024-03-23T18:33:54;10.50;99.90
19330;DHT22;9799;48.214;16.388;2024-03-23T18:37:16;10.60;99.90
19330;DHT22;9799;48.214;16.388;2024-03-23T18:40:44;10.60;99.90
19330;DHT22;9799;48.214;16.388;2024-03-23T18:44:04;10.70;99.90
19330;DHT22;9799;48.214;16.388;2024-03-23T18:47:25;10.60;99.90
19330;DHT22;9799;48.214;16.388;2024-03-23T18:50:46;10.60;99.90
19330;DHT22;9799;48.214;16.388;2024-03-23T18:54:07;10.60;99.90
19330;DHT22;9799;48.214;16.388;2024-03-23T18:57:29;10.60;99.90
19330;DHT22;9799;48.214;16.388;2024-03-23T19:00:55;10.60;99.90
19330;DHT22;9799;48.214;16.388;2024-03-23T19:04:15;10.40;99.90
19330;DHT22;9799;48.214;16.388;2024-03-23T19:07:37;10.30;99.90
19330;DHT22;9799;48.214;16.388;2024-03-23T19:10:59;10.40;99.90
19330;DHT22;9799;48.214;16.388;2024-03-23T19:14:22;10.40;99.90
19330;DHT22;9799;48.214;16.388;2024-03-23T19:17:43;10.40;99.90
19330;DHT22;9799;48.214;16.388;2024-03-23T19:21:04;10.40;99.90
19330;DHT22;9799;48.214;16.388;2024-03-23T19:24:25;10.40;99.90
19330;DHT22;9799;48.214;16.388;2024-03-23T19:27:47;10.40;99.90
19330;DHT22;9799;48.214;16.388;2024-03-23T19:31:09;10.40;99.90
19330;DHT22;9799;48.214;16.388;2024-03-23T19:34:31;10.30;99.90
19330;DHT22;9799;48.214;16.388;2024-03-23T19:37:52;10.20;99.90
19330;DHT22;9799;48.214;16.388;2024-03-23T19:41:13;10.20;99.90
19330;DHT22;9799;48.214;16.388;2024-03-23T19:44:34;10.10;99.90
19330;DHT22;9799;48.214;16.388;2024-03-23T19:47:56;10.10;99.90
19330;DHT22;9799;48.214;16.388;2024-03-23T19:51:18;10.10;99.90
19330;DHT22;9799;48.214;16.388;2024-03-23T19:54:39;10.10;99.90
19330;DHT22;9799;48.214;16.388;2024-03-23T19:58:01;9.90;99.90
19330;DHT22;9799;48.214;16.388;2024-03-23T20:01:23;10.00;99.90
19330;DHT22;9799;48.214;16.388;2024-03-23T20:04:46;9.90;99.90
19330;DHT22;9799;48.214;16.388;2024-03-23T20:08:08;10.00;99.90
19330;DHT22;9799;48.214;16.388;2024-03-23T20:11:29;9.80;99.90
19330;DHT22;9799;48.214;16.388;2024-03-23T20:14:50;9.80;99.90
19330;DHT22;9799;48.214;16.388;2024-03-23T20:18:11;9.90;99.90
19330;DHT22;9799;48.214;16.388;2024-03-23T20:21:34;9.80;99.90
19330;DHT22;9799;48.214;16.388;2024-03-23T20:24:56;9.70;99.90
19330;DHT22;9799;48.214;16.388;2024-03-23T20:28:18;9.80;99.90
19330;DHT22;9799;48.214;16.388;2024-03-23T20:31:39;9.80;99.90
19330;DHT22;9799;48.214;16.388;2024-03-23T20:35:00;9.70;99.90
19330;DHT22;9799;48.214;16.388;2024-03-23T20:38:22;9.60;99.90
19330;DHT22;9799;48.214;16.388;2024-03-23T20:41:43;9.60;99.90
19330;DHT22;9799;48.214;16.388;2024-03-23T20:45:05;9.50;99.90
19330;DHT22;9799;48.214;16.388;2024-03-23T20:48:26;9.50;99.90
19330;DHT22;9799;48.214;16.388;2024-03-23T20:51:47;9.40;99.90
19330;DHT22;9799;48.214;16.388;2024-03-23T20:55:10;9.40;99.90
19330;DHT22;9799;48.214;16.388;2024-03-23T20:58:31;9.40;99.90
19330;DHT22;9799;48.214;16.388;2024-03-23T21:01:53;9.40;99.90
19330;DHT22;9799;48.214;16.388;2024-03-23T21:05:14;9.30;99.90
19330;DHT22;9799;48.214;16.388;2024-03-23T21:08:35;9.40;99.90
19330;DHT22;9799;48.214;16.388;2024-03-23T21:11:58;9.30;99.90
19330;DHT22;9799;48.214;16.388;2024-03-23T21:15:18;9.30;99.90
19330;DHT22;9799;48.214;16.388;2024-03-23T21:18:39;9.30;99.90
19330;DHT22;9799;48.214;16.388;2024-03-23T21:22:00;9.30;99.90
19330;DHT22;9799;48.214;16.388;2024-03-23T21:25:22;9.30;99.90
19330;DHT22;9799;48.214;16.388;2024-03-23T21:28:45;9.30;99.90
19330;DHT22;9799;48.214;16.388;2024-03-23T21:32:07;9.20;99.90
19330;DHT22;9799;48.214;16.388;2024-03-23T21:35:27;9.10;99.90
19330;DHT22;9799;48.214;16.388;2024-03-23T21:38:48;9.10;99.90
19330;DHT22;9799;48.214;16.388;2024-03-23T21:42:09;9.20;99.90
19330;DHT22;9799;48.214;16.388;2024-03-23T21:45:32;9.30;99.90
19330;DHT22;9799;48.214;16.388;2024-03-23T21:48:52;9.30;99.90
19330;DHT22;9799;48.214;16.388;2024-03-23T21:52:13;9.20;99.90
19330;DHT22;9799;48.214;16.388;2024-03-23T21:55:35;9.20;99.90
19330;DHT22;9799;48.214;16.388;2024-03-23T21:58:57;9.20;99.90
19330;DHT22;9799;48.214;16.388;2024-03-23T22:02:20;9.20;99.90
19330;DHT22;9799;48.214;16.388;2024-03-23T22:05:42;9.10;99.90
19330;DHT22;9799;48.214;16.388;2024-03-23T22:09:04;9.20;99.90
19330;DHT22;9799;48.214;16.388;2024-03-23T22:12:24;9.10;99.90